Time;durP1;ratioP1;P1;durP2;ratioP2;P2;SDS_P1;SDS_P2;PMS_P1;PMS_P2;Temp;Humidity;BMP_temperature;BMP_pressure;BME280_temperature;BME280_humidity;BME280_pressure;Samples;Min_cycle;Max_cycle;Signal;HPM_P1;HPM_P2
2022/09/27 00:02:17;;;;;;;16.10;11.22;;;;;;;11.04;100.00;98346.87;1729427;83;21009;-73
2022/09/27 00:04:43;;;;;;;16.02;11.68;;;;;;;11.03;100.00;98349.40;1719873;82;21060;-73
2022/09/27 00:07:13;;;;;;;14.03;10.68;;;;;;;11.01;100.00;98351.69;1718471;81;20994;-73
2022/09/27 00:09:41;;;;;;;16.23;9.73;;;;;;;11.01;100.00;98348.14;1712158;83;20861;-73
2022/09/27 00:12:09;;;;;;;18.25;10.55;;;;;;;10.99;100.00;98336.13;1713634;83;21019;-73
2022/09/27 00:14:43;;;;;;;14.53;10.82;;;;;;;10.99;100.00;98333.39;1717664;83;20998;-73
2022/09/27 00:17:13;;;;;;;19.00;10.63;;;;;;;10.98;100.00;98328.24;1726171;82;21149;-73
2022/09/27 00:19:42;;;;;;;14.00;10.82;;;;;;;10.97;100.00;98319.23;1715089;82;21436;-73
2022/09/27 00:22:12;;;;;;;18.07;10.10;;;;;;;10.96;100.00;98319.02;1717578;82;21419;-73
2022/09/27 00:24:40;;;;;;;14.33;10.65;;;;;;;10.96;100.00;98315.47;1721043;81;20996;-73
2022/09/27 00:27:09;;;;;;;15.30;9.85;;;;;;;10.97;100.00;98307.45;1708801;82;20894;-73
2022/09/27 00:29:44;;;;;;;15.23;10.78;;;;;;;10.97;100.00;98314.32;1721306;82;20916;-73
2022/09/27 00:32:13;;;;;;;12.95;10.53;;;;;;;10.98;100.00;98308.45;1733230;81;20944;-73
2022/09/27 00:34:42;;;;;;;14.05;10.32;;;;;;;10.98;100.00;98307.08;1722715;82;21064;-73
2022/09/27 00:37:14;;;;;;;15.70;10.70;;;;;;;10.99;100.00;98306.50;1737396;81;20959;-72
2022/09/27 00:39:42;;;;;;;15.68;10.85;;;;;;;10.97;100.00;98300.02;1716649;81;20931;-72
2022/09/27 00:42:12;;;;;;;16.60;11.60;;;;;;;10.96;100.00;98291.55;1713632;82;21146;-72
2022/09/27 00:45:05;;;;;;;14.35;10.68;;;;;;;10.96;100.00;98292.92;1733885;82;20887;-72
2022/09/27 00:47:40;;;;;;;15.93;10.50;;;;;;;10.96;100.00;98293.50;1718631;82;20931;-73
2022/09/27 00:50:13;;;;;;;15.88;10.58;;;;;;;10.94;100.00;98292.48;1722619;81;21491;-73
2022/09/27 00:52:47;;;;;;;;;;;;;;;10.94;100.00;98286.98;1710267;83;20960;-73
2022/09/27 00:55:20;;;;;;;12.98;10.10;;;;;;;10.94;100.00;98286.98;1716302;82;20634;-71
2022/09/27 00:57:47;;;;;;;19.60;10.95;;;;;;;10.93;100.00;98280.47;1699754;83;20987;-71
2022/09/27 01:00:19;;;;;;;14.28;11.15;;;;;;;10.92;100.00;98275.55;1699312;83;21073;-71
2022/09/27 01:02:50;;;;;;;14.78;11.15;;;;;;;10.92;100.00;98274.17;1713684;83;21569;-73
2022/09/27 01:05:20;;;;;;;16.65;11.90;;;;;;;10.90;100.00;98268.23;1716766;82;20998;-74
2022/09/27 01:07:50;;;;;;;17.55;10.88;;;;;;;10.92;100.00;98264.56;1710566;82;20892;-74
2022/09/27 01:10:17;;;;;;;15.48;11.50;;;;;;;10.92;100.00;98260.45;1717307;82;20988;-74
2022/09/27 01:13:18;;;;;;;19.12;11.50;;;;;;;10.90;100.00;98262.74;1719393;81;20959;-72
2022/09/27 01:15:55;;;;;;;18.90;12.00;;;;;;;10.88;100.00;98258.17;1731115;81;20924;-73
2022/09/27 01:18:34;;;;;;;15.80;10.28;;;;;;;10.86;100.00;98253.61;1717179;81;21014;-73
2022/09/27 01:21:26;;;;;;;17.12;10.93;;;;;;;10.86;100.00;98259.89;1711670;82;20893;-73
2022/09/27 01:24:17;;;;;;;15.40;10.53;;;;;;;10.86;100.00;98256.35;1721892;82;20899;-73
2022/09/27 01:27:28;;;;;;;16.05;11.05;;;;;;;10.86;100.00;98251.66;1719936;81;20982;-72
2022/09/27 01:30:28;;;;;;;22.75;10.85;;;;;;;10.85;100.00;98237.70;1727943;81;21070;-72
2022/09/27 01:33:02;;;;;;;17.42;10.68;;;;;;;10.84;100.00;98236.69;1703122;83;20940;-72
2022/09/27 01:36:09;;;;;;;16.05;10.82;;;;;;;10.83;100.00;98241.95;1717151;82;21121;-72
2022/09/27 01:39:04;;;;;;;14.38;10.70;;;;;;;10.82;100.00;98235.66;1722097;82;21516;-72
2022/09/27 01:41:48;;;;;;;18.17;10.65;;;;;;;10.81;100.00;98228.57;1726948;81;20899;-72
2022/09/27 01:44:45;;;;;;;18.73;10.98;;;;;;;10.80;100.00;98225.59;1726057;81;20995;-72
2022/09/27 01:47:19;;;;;;;17.48;11.22;;;;;;;10.79;100.00;98220.46;1715248;81;21025;-73
2022/09/27 01:50:12;;;;;;;15.00;11.12;;;;;;;10.79;100.00;98209.48;1707862;82;20975;-73
2022/09/27 01:52:50;;;;;;;16.82;11.30;;;;;;;10.78;100.00;98207.31;1713755;83;20921;-73
2022/09/27 01:55:27;;;;;;;20.60;12.58;;;;;;;10.79;100.00;98202.05;1678414;83;20975;-73
2022/09/27 01:58:18;;;;;;;17.17;11.57;;;;;;;10.79;100.00;98198.50;1681439;83;20983;-73
2022/09/27 02:00:48;;;;;;;21.50;11.68;;;;;;;10.78;100.00;98202.39;1710403;82;20966;-72
2022/09/27 02:03:21;;;;;;;18.82;12.35;;;;;;;10.77;100.00;98200.80;1721054;82;21779;-73
2022/09/27 02:06:03;;;;;;;15.85;11.55;;;;;;;10.75;100.00;98207.20;1731075;81;25593;-73
2022/09/27 02:08:55;;;;;;;19.45;12.18;;;;;;;10.74;100.00;98213.27;1727644;82;20991;-73
2022/09/27 02:11:50;;;;;;;18.25;11.73;;;;;;;10.72;100.00;98208.70;1732775;81;21038;-72
2022/09/27 02:14:29;;;;;;;16.27;11.38;;;;;;;10.73;100.00;98208.93;1721067;81;21022;-73
2022/09/27 02:17:15;;;;;;;24.25;12.35;;;;;;;10.73;100.00;98213.62;1700767;82;21181;-73
2022/09/27 02:19:55;;;;;;;15.30;11.53;;;;;;;10.71;100.00;98204.94;1723338;81;20974;-73
2022/09/27 02:22:41;;;;;;;20.88;13.50;;;;;;;10.69;100.00;98200.37;1747644;80;21066;-73
2022/09/27 02:25:28;;;;;;;16.07;12.33;;;;;;;10.69;100.00;98197.05;1735980;80;21077;-73
2022/09/27 02:28:22;;;;;;;21.33;13.00;;;;;;;10.68;100.00;98198.20;1727618;80;20983;-73
2022/09/27 02:30:49;;;;;;;15.43;11.78;;;;;;;10.69;100.00;98194.87;1749711;80;21235;-73
2022/09/27 02:33:22;;;;;;;16.02;12.10;;;;;;;10.70;100.00;98193.16;1757939;81;20935;-73
2022/09/27 02:35:55;;;;;;;19.32;12.40;;;;;;;10.69;100.00;98182.53;1728288;80;20950;-73
2022/09/27 02:38:27;;;;;;;17.90;13.10;;;;;;;10.67;100.00;98176.02;1756281;80;21459;-73
2022/09/27 02:40:59;;;;;;;20.05;12.60;;;;;;;10.65;100.00;98174.77;1749330;80;21023;-73
2022/09/27 02:43:31;;;;;;;15.75;12.58;;;;;;;10.64;100.00;98170.42;1754287;80;21147;-73
2022/09/27 02:46:40;;;;;;;18.45;12.45;;;;;;;10.63;100.00;98170.20;1766429;80;20931;-73
2022/09/27 02:49:40;;;;;;;17.17;12.47;;;;;;;10.63;100.00;98174.31;1766769;80;21580;-72
2022/09/27 02:52:35;;;;;;;17.07;12.98;;;;;;;10.62;100.00;98174.09;1748148;80;21568;-72
2022/09/27 02:55:49;;;;;;;21.80;13.22;;;;;;;10.63;100.00;98168.83;1760591;80;21485;-71
2022/09/27 02:58:35;;;;;;;19.55;13.88;;;;;;;10.64;100.00;98165.73;1728404;80;21576;-71
2022/09/27 03:01:44;;;;;;;20.52;12.73;;;;;;;10.67;100.00;98172.47;1766216;80;21465;-71
2022/09/27 03:04:24;;;;;;;20.88;13.50;;;;;;;10.71;100.00;98170.05;1746517;80;20953;-72
2022/09/27 03:06:54;;;;;;;21.75;12.25;;;;;;;10.74;100.00;98163.86;1750820;80;21157;-71
2022/09/27 03:09:29;;;;;;;16.48;12.90;;;;;;;10.76;100.00;98162.94;1741244;80;20951;-72
2022/09/27 03:11:57;;;;;;;18.10;13.83;;;;;;;10.76;100.00;98162.14;1762467;80;21735;-71
2022/09/27 03:14:25;;;;;;;17.82;13.95;;;;;;;10.74;100.00;98154.83;1755229;80;21048;-72
2022/09/27 03:17:00;;;;;;;18.05;13.58;;;;;;;10.75;100.00;98166.03;1754315;80;20939;-72
2022/09/27 03:19:42;;;;;;;17.27;13.00;;;;;;;10.77;100.00;98169.23;1698477;80;20961;-71
2022/09/27 03:22:31;;;;;;;21.20;14.58;;;;;;;10.78;100.00;98166.13;1685487;83;21064;-71
2022/09/27 03:25:01;;;;;;;20.93;13.37;;;;;;;10.79;100.00;98161.44;1692742;83;21601;-72
2022/09/27 03:27:34;;;;;;;18.27;12.95;;;;;;;10.79;100.00;98162.81;1728426;80;20976;-76
2022/09/27 03:30:01;;;;;;;17.42;13.08;;;;;;;10.79;100.00;98161.44;1752182;80;21239;-75
2022/09/27 03:32:32;;;;;;;17.17;13.40;;;;;;;10.79;100.00;98154.01;1753690;81;21082;-75
2022/09/27 03:35:14;;;;;;;23.95;13.95;;;;;;;10.79;100.00;98152.63;1721647;82;21457;-76
2022/09/27 03:37:46;;;;;;;20.70;13.40;;;;;;;10.77;100.00;98149.44;1696253;82;20952;-79
2022/09/27 03:40:17;;;;;;;22.13;13.90;;;;;;;10.75;100.00;98139.96;1719908;82;20998;-76
2022/09/27 03:42:48;;;;;;;19.32;12.50;;;;;;;10.73;100.00;98140.31;1722947;82;20959;-80
2022/09/27 03:45:17;;;;;;;18.17;13.75;;;;;;;10.73;100.00;98144.42;1726776;82;21558;-81
2022/09/27 03:47:50;;;;;;;23.62;14.65;;;;;;;10.70;100.00;98140.21;1693254;83;21002;-84
2022/09/27 03:50:19;;;;;;;19.92;14.58;;;;;;;10.71;100.00;98133.58;1720019;82;21867;-72
2022/09/27 03:52:53;;;;;;;23.17;14.33;;;;;;;10.72;100.00;98144.78;1732935;82;20910;-82
2022/09/27 03:55:25;;;;;;;17.35;13.90;;;;;;;10.73;100.00;98136.77;1733757;82;20955;-79
2022/09/27 03:57:53;;;;;;;18.85;14.23;;;;;;;10.78;100.00;98136.52;1724232;81;21021;-85
2022/09/27 04:00:21;;;;;;;18.48;14.15;;;;;;;10.79;100.00;98134.80;1726465;81;21053;-79
2022/09/27 04:02:51;;;;;;;20.82;15.13;;;;;;;10.80;100.00;98134.22;1736981;81;21619;-81
2022/09/27 04:05:26;;;;;;;22.20;14.98;;;;;;;10.79;100.00;98134.80;1719986;81;21053;-85
2022/09/27 04:08:00;;;;;;;22.90;14.47;;;;;;;10.80;100.00;98132.84;1715542;82;21120;-78
2022/09/27 04:10:29;;;;;;;19.65;14.60;;;;;;;10.77;100.00;98126.11;1724873;82;21070;-83
2022/09/27 04:12:59;;;;;;;21.75;14.68;;;;;;;10.76;100.00;98126.45;1720938;82;20997;-85
2022/09/27 04:15:31;;;;;;;21.70;14.90;;;;;;;10.75;100.00;98121.55;1728468;82;21847;-85
2022/09/27 04:17:59;;;;;;;21.97;14.27;;;;;;;10.75;100.00;98123.49;1712030;82;21491;-81
2022/09/27 04:20:35;;;;;;;20.27;14.30;;;;;;;10.74;100.00;98124.64;1722479;82;20915;-83
2022/09/27 04:23:05;;;;;;;21.55;14.40;;;;;;;10.74;100.00;98124.06;1730366;82;20967;-77
2022/09/27 04:25:34;;;;;;;20.50;13.83;;;;;;;10.75;100.00;98120.75;1720886;82;20967;-76
2022/09/27 04:28:05;;;;;;;20.37;14.07;;;;;;;10.76;100.00;98123.14;1700962;83;21811;-79
2022/09/27 04:30:32;;;;;;;21.05;14.35;;;;;;;10.77;100.00;98116.50;1683728;84;21003;-87
2022/09/27 04:33:11;;;;;;;20.15;13.88;;;;;;;10.79;100.00;98108.71;1689385;84;20951;-78
2022/09/27 04:38:44;;;;;;;21.68;15.10;;;;;;;10.81;100.00;98105.05;1698135;83;20951;-81
2022/09/27 04:41:11;;;;;;;20.80;15.75;;;;;;;10.84;100.00;98107.08;1682525;84;21121;-83
2022/09/27 04:43:39;;;;;;;21.37;15.43;;;;;;;10.85;100.00;98103.77;1698843;83;21041;-80
2022/09/27 04:46:06;;;;;;;25.40;16.07;;;;;;;10.84;100.00;98095.30;1694214;83;21021;-80
2022/09/27 04:48:32;;;;;;;24.05;16.50;;;;;;;10.85;100.00;98100.44;1691174;83;21120;-81
2022/09/27 04:51:01;;;;;;;19.98;15.05;;;;;;;10.86;100.00;98094.38;1693099;83;21072;-78
2022/09/27 04:53:28;;;;;;;20.30;13.85;;;;;;;10.85;100.00;98090.03;1689885;83;21165;-86
2022/09/27 04:55:56;;;;;;;23.95;15.60;;;;;;;10.85;100.00;98089.47;1713125;83;21015;-82
2022/09/27 04:58:23;;;;;;;21.00;13.48;;;;;;;10.85;100.00;98085.34;1679040;84;20885;-83
2022/09/27 05:00:54;;;;;;;19.02;12.85;;;;;;;10.85;100.00;98077.69;1694093;82;21007;-84
2022/09/27 05:03:30;;;;;;;22.52;13.93;;;;;;;10.86;100.00;98082.83;1671042;83;20941;-81
2022/09/27 05:05:59;;;;;;;20.17;14.15;;;;;;;10.86;100.00;98080.66;1672061;83;21179;-82
2022/09/27 05:08:27;;;;;;;19.55;14.87;;;;;;;10.87;100.00;98076.18;1671949;83;21601;-80
2022/09/27 05:11:08;;;;;;;19.80;13.72;;;;;;;10.90;100.00;98073.30;1654292;83;21040;-80
2022/09/27 05:13:35;;;;;;;19.45;14.15;;;;;;;10.94;100.00;98078.31;1694408;82;20944;-81
2022/09/27 05:16:03;;;;;;;21.35;13.70;;;;;;;10.96;100.00;98080.13;1705532;83;21466;-84
2022/09/27 05:18:49;;;;;;;19.82;12.95;;;;;;;10.99;100.00;98079.39;1675163;85;21799;-83
2022/09/27 05:21:26;;;;;;;17.90;13.65;;;;;;;11.04;100.00;98079.70;1690635;82;20990;-77
2022/09/27 05:23:53;;;;;;;25.70;14.68;;;;;;;11.05;100.00;98080.72;1687184;83;20943;-76
2022/09/27 05:26:19;;;;;;;24.87;13.72;;;;;;;11.07;100.00;98085.29;1711265;83;20962;-82
2022/09/27 05:28:46;;;;;;;32.10;15.68;;;;;;;11.11;100.00;98086.17;1702942;83;21665;-82
2022/09/27 05:31:13;;;;;;;22.52;14.68;;;;;;;11.14;100.00;98088.79;1684060;82;21213;-82
2022/09/27 05:33:40;;;;;;;35.10;16.15;;;;;;;11.16;100.00;98088.66;1699016;82;20990;-82
2022/09/27 05:36:25;;;;;;;31.25;15.80;;;;;;;11.21;100.00;98089.77;1738230;82;21086;-85
2022/09/27 05:38:53;;;;;;;36.42;15.93;;;;;;;11.28;100.00;98085.59;1718263;82;20983;-85
2022/09/27 05:41:20;;;;;;;36.93;16.15;;;;;;;11.31;100.00;98085.69;1729746;81;21434;-75
2022/09/27 05:43:48;;;;;;;31.87;15.98;;;;;;;11.36;100.00;98085.99;1736630;81;21138;-75
2022/09/27 05:46:15;;;;;;;40.52;16.65;;;;;;;11.41;100.00;98084.34;1713508;83;21428;-80
2022/09/27 05:48:42;;;;;;;33.30;15.68;;;;;;;11.44;100.00;98085.01;1706482;82;20896;-77
2022/09/27 05:51:10;;;;;;;37.78;16.45;;;;;;;11.48;100.00;98087.27;1723368;81;20897;-77
2022/09/27 05:53:39;;;;;;;41.55;16.80;;;;;;;11.52;100.00;98090.32;1714292;82;20975;-88
2022/09/27 05:56:07;;;;;;;36.70;16.10;;;;;;;11.57;100.00;98087.27;1703622;83;21479;-80
2022/09/27 05:58:53;;;;;;;45.08;16.97;;;;;;;11.62;100.00;98090.32;1706719;82;20955;-80
2022/09/27 06:01:22;;;;;;;53.98;19.82;;;;;;;11.65;100.00;98084.69;1718843;81;21057;-87
2022/09/27 06:04:07;;;;;;;46.68;19.77;;;;;;;11.66;100.00;98088.45;1711864;81;20982;-93
2022/09/27 06:06:39;;;;;;;42.17;17.27;;;;;;;11.66;100.00;98086.28;1679957;83;21047;-79
2022/09/27 06:09:13;;;;;;;48.78;19.67;;;;;;;11.66;100.00;98089.83;1703648;82;21502;-84
2022/09/27 06:11:44;;;;;;;56.65;22.52;;;;;;;11.67;100.00;98090.63;1698851;83;20932;-85
2022/09/27 06:14:12;;;;;;;54.50;23.92;;;;;;;11.66;100.00;98088.45;1688687;84;20931;-85
2022/09/27 06:16:41;;;;;;;56.05;23.27;;;;;;;11.67;100.00;98095.54;1685763;83;20934;-85
2022/09/27 06:19:09;;;;;;;58.33;25.12;;;;;;;11.70;100.00;98102.28;1703277;82;21054;-83
2022/09/27 06:21:36;;;;;;;49.95;22.93;;;;;;;11.71;100.00;98103.30;1683841;83;21157;-80
2022/09/27 06:24:06;;;;;;;59.27;24.65;;;;;;;11.72;100.00;98098.59;1683729;84;21148;-85
2022/09/27 06:26:36;;;;;;;66.12;27.98;;;;;;;11.76;100.00;98103.59;1690872;84;20974;-79
2022/09/27 06:29:04;;;;;;;58.83;25.02;;;;;;;11.78;100.00;98093.06;1686631;83;20908;-80
2022/09/27 06:31:33;;;;;;;54.80;24.60;;;;;;;11.79;100.00;98088.59;1699612;83;20867;-80
2022/09/27 06:34:23;;;;;;;52.33;24.75;;;;;;;11.81;100.00;98085.48;1677625;84;21162;-76
2022/09/27 06:36:50;;;;;;;45.90;23.02;;;;;;;11.80;100.00;98086.05;1679946;84;21589;-74
2022/09/27 06:39:20;;;;;;;54.80;23.35;;;;;;;11.81;100.00;98087.65;1691346;84;20999;-73
2022/09/27 06:42:00;;;;;;;50.95;23.67;;;;;;;11.82;100.00;98087.87;1648628;84;21024;-75
2022/09/27 06:44:39;;;;;;;55.65;23.95;;;;;;;11.84;100.00;98085.56;1670794;83;21089;-81
2022/09/27 06:47:28;;;;;;;50.60;23.60;;;;;;;11.88;100.00;98094.68;1678459;84;21801;-81
2022/09/27 06:50:08;;;;;;;58.63;23.22;;;;;;;11.88;100.00;98096.63;1659608;82;20987;-75
2022/09/27 06:52:39;;;;;;;53.20;24.87;;;;;;;11.92;100.00;98103.59;1683851;83;20968;-90
2022/09/27 06:55:10;;;;;;;62.13;26.47;;;;;;;11.96;100.00;98104.46;1673827;83;20944;-81
2022/09/27 07:00:23;;;;;;;56.37;24.60;;;;;;;12.01;100.00;98103.60;1685995;83;21184;-86
2022/09/27 07:03:13;;;;;;;53.40;24.80;;;;;;;12.05;100.00;98109.19;1719644;81;21023;-82
2022/09/27 07:05:41;;;;;;;53.05;23.45;;;;;;;12.07;100.00;98106.30;1721508;82;21071;-76
2022/09/27 07:08:13;;;;;;;47.80;23.47;;;;;;;12.11;100.00;98102.24;1742553;82;21035;-83
2022/09/27 07:10:42;;;;;;;49.42;22.52;;;;;;;12.14;100.00;98094.61;1739584;81;20879;-81
2022/09/27 07:13:10;;;;;;;49.95;24.25;;;;;;;12.16;100.00;98090.92;1727601;82;21159;-84
2022/09/27 07:15:40;;;;;;;38.70;20.30;;;;;;;12.15;100.00;98088.75;1720941;81;21035;-78
2022/09/27 07:18:09;;;;;;;36.95;19.77;;;;;;;12.16;100.00;98086.22;1722464;82;20952;-79
2022/09/27 07:20:37;;;;;;;44.65;22.82;;;;;;;12.14;100.00;98084.98;1684645;82;21077;-80
2022/09/27 07:23:05;;;;;;;40.12;21.77;;;;;;;12.12;100.00;98079.08;1699551;83;21076;-79
2022/09/27 07:25:33;;;;;;;40.25;20.02;;;;;;;12.10;100.00;98075.31;1699629;83;21744;-78
2022/09/27 07:28:05;;;;;;;37.17;18.45;;;;;;;12.11;100.00;98076.11;1709290;82;20877;-76
2022/09/27 07:30:32;;;;;;;42.95;21.35;;;;;;;12.12;100.00;98074.38;1706309;82;20901;-76
2022/09/27 07:33:04;;;;;;;57.90;28.73;;;;;;;12.13;100.00;98075.17;1712831;82;20972;-82
2022/09/27 07:35:38;;;;;;;64.82;28.20;;;;;;;12.12;100.00;98074.38;1678605;83;20979;-76
2022/09/27 07:38:07;;;;;;;48.42;26.10;;;;;;;12.14;100.00;98067.91;1717818;82;21113;-76
2022/09/27 07:40:41;;;;;;;39.40;23.62;;;;;;;12.16;100.00;98074.42;1692985;83;20902;-75
2022/09/27 07:43:12;;;;;;;40.10;21.93;;;;;;;12.17;100.00;98079.56;1710619;83;28048;-80
2022/09/27 07:45:43;;;;;;;41.75;23.75;;;;;;;12.18;100.00;98078.41;1692493;83;21466;-76
2022/09/27 07:48:14;;;;;;;31.95;19.02;;;;;;;12.19;100.00;98075.88;1695042;83;21008;-82
2022/09/27 07:51:06;;;;;;;38.28;20.02;;;;;;;12.22;100.00;98081.23;1694754;81;20975;-80
2022/09/27 07:53:39;;;;;;;33.75;18.35;;;;;;;12.20;100.00;98079.42;1712680;83;21455;-76
2022/09/27 07:56:24;;;;;;;32.63;18.67;;;;;;;12.21;100.00;98081.80;1714825;82;20967;-74
2022/09/27 07:58:51;;;;;;;30.30;17.37;;;;;;;12.21;100.00;98083.18;1716948;82;21497;-81
2022/09/27 08:01:18;;;;;;;35.30;18.45;;;;;;;12.20;100.00;98084.34;1712838;83;20936;-82
2022/09/27 08:03:45;;;;;;;34.08;18.25;;;;;;;12.20;100.00;98079.42;1714846;83;21425;-82
2022/09/27 08:06:16;;;;;;;36.88;19.10;;;;;;;12.20;100.00;98075.29;1740950;82;20895;-78
2022/09/27 08:08:44;;;;;;;27.55;17.05;;;;;;;12.22;100.00;98077.09;1709971;82;20925;-77
2022/09/27 08:11:15;;;;;;;25.43;15.93;;;;;;;12.23;100.00;98070.44;1717330;82;20941;-79
2022/09/27 08:13:48;;;;;;;25.65;15.72;;;;;;;12.23;100.00;98060.23;1700639;81;21510;-82
2022/09/27 08:16:18;;;;;;;29.12;17.30;;;;;;;12.23;100.00;98060.81;1713418;82;21137;-81
2022/09/27 08:19:02;;;;;;;29.55;17.77;;;;;;;12.23;100.00;98064.36;1685026;82;21706;-81
2022/09/27 08:21:32;;;;;;;23.87;16.85;;;;;;;12.24;100.00;98063.20;1717055;81;20999;-78
2022/09/27 08:24:05;;;;;;;27.15;17.50;;;;;;;12.28;100.00;98065.23;1715969;83;21026;-82
2022/09/27 08:26:33;;;;;;;30.32;18.62;;;;;;;12.31;100.00;98067.25;1685590;83;20967;-80
2022/09/27 08:29:02;;;;;;;30.48;19.00;;;;;;;12.37;100.00;98073.48;1707859;83;21284;-80
2022/09/27 08:31:33;;;;;;;38.25;24.55;;;;;;;12.44;100.00;98072.83;1715267;82;20868;-81
2022/09/27 08:34:00;;;;;;;37.33;25.25;;;;;;;12.50;100.00;98072.75;1721882;82;20956;-80
2022/09/27 08:36:27;;;;;;;37.03;23.90;;;;;;;12.55;100.00;98077.38;1722312;82;21546;-81
2022/09/27 08:39:00;;;;;;;34.08;20.85;;;;;;;12.61;100.00;98072.37;1715447;82;21613;-84
2022/09/27 08:42:01;;;;;;;35.25;21.57;;;;;;;12.70;100.00;98072.14;1710563;81;21948;-86
2022/09/27 08:44:49;;;;;;;39.00;20.60;;;;;;;12.74;100.00;98079.86;1704704;81;20888;-86
2022/09/27 08:47:40;;;;;;;59.55;30.55;;;;;;;12.77;100.00;98073.63;1728847;81;21708;-74
2022/09/27 08:50:33;;;;;;;83.95;40.45;;;;;;;12.80;100.00;98073.69;1731909;82;21478;-78
2022/09/27 08:53:15;;;;;;;49.80;28.00;;;;;;;12.81;100.00;98073.11;1718539;82;20933;-77
2022/09/27 08:55:48;;;;;;;37.75;24.72;;;;;;;12.79;100.00;98065.21;1711711;82;21223;-86
2022/09/27 08:58:50;;;;;;;44.77;27.10;;;;;;;12.79;100.00;98050.06;1712334;82;21007;-82
2022/09/27 09:01:27;;;;;;;33.75;21.87;;;;;;;12.80;100.00;98056.37;1705691;82;20947;-74
2022/09/27 09:04:03;;;;;;;33.40;20.43;;;;;;;12.83;100.00;98050.92;1712456;83;21019;-75
2022/09/27 09:06:49;;;;;;;;;;;;;;;12.86;100.00;98053.53;1725376;81;20926;-81
2022/09/27 09:09:29;;;;;;;27.37;17.50;;;;;;;12.87;100.00;98049.61;1707204;82;21882;-77
2022/09/27 09:12:52;;;;;;;26.70;18.12;;;;;;;12.85;100.00;98049.18;1716659;82;20877;-76
2022/09/27 09:15:53;;;;;;;27.75;18.65;;;;;;;12.87;100.00;98049.61;1675547;83;21475;-76
2022/09/27 09:18:42;;;;;;;24.92;17.52;;;;;;;12.90;100.00;98051.63;1690839;83;21448;-76
2022/09/27 09:21:49;;;;;;;29.95;18.60;;;;;;;12.91;100.00;98051.84;1684736;83;20881;-74
2022/09/27 09:24:59;;;;;;;27.10;18.52;;;;;;;12.90;100.00;98048.30;1714432;83;21255;-75
2022/09/27 09:27:44;;;;;;;26.60;18.45;;;;;;;12.93;100.00;98046.77;1717142;82;21062;-75
2022/09/27 09:30:24;;;;;;;29.20;20.05;;;;;;;12.93;100.00;98050.10;1716182;82;20908;-75
2022/09/27 09:33:24;;;;;;;38.28;21.37;;;;;;;12.93;100.00;98041.26;1703280;81;21069;-81
2022/09/27 09:36:24;;;;;;;31.65;20.43;;;;;;;12.95;100.00;98037.56;1712401;83;20908;-83
2022/09/27 09:38:56;;;;;;;37.00;21.52;;;;;;;12.99;100.00;98045.30;1701348;82;20892;-75
2022/09/27 09:41:32;;;;;;;28.55;17.87;;;;;;;13.05;100.00;98033.39;1690190;82;20944;-86
2022/09/27 09:44:17;;;;;;;32.38;20.57;;;;;;;13.15;100.00;98039.08;1694435;83;20959;-85
2022/09/27 09:46:47;;;;;;;33.08;19.90;;;;;;;13.24;100.00;98043.57;1712359;82;21428;-80
2022/09/27 09:49:25;;;;;;;28.85;18.48;;;;;;;13.29;100.00;98052.88;1713927;82;20908;-84
2022/09/27 09:51:55;;;;;;;30.37;19.42;;;;;;;13.30;100.00;98056.64;1688878;83;22001;-83
2022/09/27 09:54:32;;;;;;;26.80;19.30;;;;;;;13.38;100.00;98058.34;1709383;81;20931;-84
2022/09/27 09:57:25;;;;;;;26.05;18.42;;;;;;;13.50;100.00;98057.34;1690189;84;21188;-79
2022/09/27 09:59:58;;;;;;;32.10;19.95;;;;;;;13.58;100.00;98049.39;1690851;83;21513;-82
2022/09/27 10:02:30;;;;;;;27.07;18.82;;;;;;;13.67;100.00;98060.16;1696160;83;21533;-84
2022/09/27 10:05:00;;;;;;;32.17;19.57;;;;;;;13.70;100.00;98061.59;1702230;83;21050;-82
2022/09/27 10:07:29;;;;;;;26.93;19.07;;;;;;;13.74;100.00;98056.13;1712560;83;20889;-85
2022/09/27 10:09:59;;;;;;;26.82;17.70;;;;;;;13.77;100.00;98053.41;1723244;82;20853;-81
2022/09/27 10:12:28;;;;;;;23.45;17.70;;;;;;;13.78;100.00;98055.00;1715110;82;20919;-81
2022/09/27 10:15:00;;;;;;;25.80;18.05;;;;;;;13.82;100.00;98047.58;1711715;82;20944;-76
2022/09/27 10:17:40;;;;;;;27.65;19.15;;;;;;;13.89;100.00;98043.51;1695753;82;20932;-75
2022/09/27 10:20:22;;;;;;;24.50;18.42;;;;;;;13.97;100.00;98043.60;1690406;82;20857;-82
2022/09/27 10:22:54;;;;;;;26.05;18.65;;;;;;;14.04;100.00;98038.18;1708242;83;20911;-78
2022/09/27 10:25:28;;;;;;;25.08;18.82;;;;;;;14.09;100.00;98033.70;1716514;83;20945;-76
2022/09/27 10:28:01;;;;;;;27.98;18.27;;;;;;;14.12;100.00;98030.99;1697121;81;21412;-76
2022/09/27 10:30:32;;;;;;;27.40;17.35;;;;;;;14.15;100.00;98039.91;1718495;82;21241;-78
2022/09/27 10:33:09;;;;;;;25.92;17.42;;;;;;;14.21;100.00;98043.13;1716062;82;21423;-78
2022/09/27 10:35:43;;;;;;;24.98;17.17;;;;;;;14.24;100.00;98034.09;1699982;82;20915;-77
2022/09/27 10:38:29;;;;;;;22.87;16.52;;;;;;;14.27;100.00;98029.20;1722321;82;20940;-78
2022/09/27 10:41:25;;;;;;;24.65;16.97;;;;;;;14.30;100.00;98033.97;1725356;82;20897;-78
2022/09/27 10:43:56;;;;;;;26.00;17.50;;;;;;;14.36;100.00;98037.98;1711076;83;21927;-80
2022/09/27 10:46:32;;;;;;;21.35;16.60;;;;;;;14.50;100.00;98029.06;1684928;83;21222;-82
2022/09/27 10:49:28;;;;;;;24.85;17.55;;;;;;;14.71;100.00;98029.88;1663495;84;20985;-78
2022/09/27 10:52:01;;;;;;;24.02;16.80;;;;;;;14.92;100.00;98017.66;1688538;82;20904;-78
2022/09/27 10:54:35;;;;;;;24.87;15.90;;;;;;;15.16;100.00;98016.25;1718245;82;21500;-76
2022/09/27 10:57:19;;;;;;;30.65;16.75;;;;;;;15.40;100.00;98016.23;1696504;83;21167;-91
2022/09/27 10:59:50;;;;;;;20.08;16.27;;;;;;;15.82;100.00;98016.50;1717037;82;21600;-86
2022/09/27 11:02:29;;;;;;;;;;;;;;;16.16;100.00;98007.38;1715663;82;21439;-89
2022/09/27 11:05:12;;;;;;;22.75;15.53;;;;;;;16.30;100.00;98010.76;1710236;82;20444;-85
2022/09/27 11:07:53;;;;;;;25.35;15.18;;;;;;;16.49;100.00;98004.87;1717371;83;20987;-76
2022/09/27 11:10:34;;;;;;;22.48;15.00;;;;;;;16.84;100.00;98001.39;1682722;83;21309;-84
2022/09/27 11:13:18;;;;;;;20.08;13.40;;;;;;;17.19;100.00;98003.19;1713287;82;37686;-77
2022/09/27 11:16:21;;;;;;;20.37;12.75;;;;;;;17.21;100.00;98006.36;1688597;82;21401;-83
2022/09/27 11:19:18;;;;;;;18.83;12.80;;;;;;;17.20;100.00;98009.72;1703601;83;20869;-88
2022/09/27 11:22:04;;;;;;;17.52;13.15;;;;;;;17.35;100.00;98002.95;1712302;81;20886;-90
2022/09/27 11:28:15;;;;;;;21.10;13.68;;;;;;;18.27;100.00;97997.75;1714614;82;20881;-85
2022/09/27 11:31:09;;;;;;;17.15;12.63;;;;;;;18.46;97.07;98000.03;1727878;83;20884;-89
2022/09/27 11:34:08;;;;;;;18.70;13.10;;;;;;;18.56;97.10;97997.57;1717999;82;20949;-75
2022/09/27 11:36:43;;;;;;;19.35;11.60;;;;;;;18.70;94.29;97993.34;1703916;81;20937;-77
2022/09/27 11:39:15;;;;;;;14.10;11.00;;;;;;;18.83;92.48;97987.50;1741608;82;21751;-80
2022/09/27 11:42:04;;;;;;;17.82;11.85;;;;;;;19.04;92.48;97990.13;1711367;81;20949;-80
2022/09/27 11:45:22;;;;;;;14.13;10.15;;;;;;;19.45;89.26;97991.53;1717831;82;20940;-77
2022/09/27 11:48:23;;;;;;;16.42;11.05;;;;;;;19.80;87.46;97996.55;1737023;81;20920;-81
2022/09/27 11:51:15;;;;;;;13.80;9.15;;;;;;;19.75;86.24;97992.83;1721802;82;20904;-78
2022/09/27 11:53:53;;;;;;;14.13;8.93;;;;;;;19.54;85.40;97996.64;1712518;83;21239;-80
2022/09/27 11:56:37;;;;;;;12.35;8.18;;;;;;;19.30;84.69;97996.24;1732325;81;21459;-85
2022/09/27 11:59:33;;;;;;;16.60;9.95;;;;;;;19.14;85.93;97996.77;1690982;83;20920;-87
2022/09/27 12:02:24;;;;;;;16.48;9.70;;;;;;;18.94;87.73;97998.55;1711024;83;20900;-88
2022/09/27 12:05:30;;;;;;;14.75;9.75;;;;;;;18.68;87.79;97995.14;1711421;83;21070;-86
2022/09/27 12:08:13;;;;;;;16.45;10.28;;;;;;;18.48;89.04;97989.27;1714842;83;21130;-88